Time;durP1;ratioP1;P1;durP2;ratioP2;P2;SDS_P1;SDS_P2;PMS_P1;PMS_P2;Temp;Humidity;BMP_temperature;BMP_pressure;BME280_temperature;BME280_humidity;BME280_pressure;Samples;Min_cycle;Max_cycle;Signal;HPM_P1;HPM_P2
2022/09/26 00:02:18;;;;;;;0.00;0.00;;;16.90;81.80;;;;;;4158178;28;20704;-61
2022/09/26 00:04:59;;;;;;;0.00;0.00;;;16.80;81.80;;;;;;4159175;28;20160;-62
2022/09/26 00:07:40;;;;;;;;;;;16.80;81.80;;;;;;4158882;28;20072;-61
2022/09/26 00:10:21;;;;;;;0.00;0.00;;;16.80;81.70;;;;;;4159046;28;19932;-61
2022/09/26 00:13:02;;;;;;;0.00;0.00;;;16.90;81.80;;;;;;4159373;28;20382;-61
2022/09/26 00:15:43;;;;;;;0.00;0.00;;;16.80;81.80;;;;;;4159058;28;20079;-61
2022/09/26 00:18:25;;;;;;;0.00;0.00;;;16.80;81.80;;;;;;4158479;28;20188;-62
2022/09/26 00:21:09;;;;;;;0.00;0.00;;;16.80;81.70;;;;;;4158417;28;20166;-62
2022/09/26 00:23:51;;;;;;;0.00;0.00;;;16.80;81.80;;;;;;4158997;28;20049;-61
2022/09/26 00:26:34;;;;;;;0.00;0.00;;;16.80;81.80;;;;;;4142452;28;20053;-61
2022/09/26 00:29:16;;;;;;;0.00;0.00;;;16.80;81.90;;;;;;4142774;28;20068;-64
2022/09/26 00:31:57;;;;;;;0.00;0.00;;;16.80;82.00;;;;;;4130069;28;20140;-61
2022/09/26 00:34:40;;;;;;;0.00;0.00;;;16.80;81.90;;;;;;4142675;28;20052;-62
2022/09/26 00:37:21;;;;;;;0.00;0.00;;;16.80;82.00;;;;;;4146407;28;20503;-62
2022/09/26 00:40:02;;;;;;;0.00;0.00;;;16.80;82.10;;;;;;4158097;28;20072;-62
2022/09/26 00:42:43;;;;;;;0.10;0.10;;;16.80;82.10;;;;;;4157084;28;20111;-62
2022/09/26 00:45:29;;;;;;;0.00;0.00;;;16.80;82.10;;;;;;4157355;28;20052;-62
2022/09/26 00:48:11;;;;;;;0.00;0.00;;;16.80;82.10;;;;;;4158531;28;20056;-60
2022/09/26 00:50:53;;;;;;;0.00;0.00;;;16.80;82.10;;;;;;4144861;28;20061;-60
2022/09/26 00:53:38;;;;;;;0.00;0.00;;;16.80;82.00;;;;;;4157850;28;20049;-60
2022/09/26 00:56:30;;;;;;;0.00;0.00;;;16.80;82.10;;;;;;4158270;28;20061;-60
2022/09/26 00:59:15;;;;;;;0.00;0.00;;;16.80;82.10;;;;;;4158595;28;22927;-61
2022/09/26 01:01:58;;;;;;;0.03;0.03;;;16.80;83.10;;;;;;4158359;28;20064;-61
2022/09/26 01:04:41;;;;;;;0.00;0.00;;;16.80;82.10;;;;;;4157206;28;20524;-62
2022/09/26 01:07:26;;;;;;;0.00;0.00;;;16.70;83.00;;;;;;4141791;28;20069;-61
2022/09/26 01:10:08;;;;;;;0.00;0.00;;;16.80;82.20;;;;;;4141989;28;20123;-61
2022/09/26 01:12:51;;;;;;;0.00;0.00;;;16.80;82.20;;;;;;4141895;28;20057;-61
2022/09/26 01:15:33;;;;;;;;;;;16.80;82.30;;;;;;4158446;28;20048;-61
2022/09/26 01:18:14;;;;;;;0.00;0.00;;;16.80;82.30;;;;;;4158067;28;19979;-61
2022/09/26 01:21:02;;;;;;;0.00;0.00;;;16.80;82.40;;;;;;4157170;28;20052;-61
2022/09/26 01:24:20;;;;;;;0.03;0.03;;;16.80;82.30;;;;;;4157912;28;20110;-61
2022/09/26 01:27:23;;;;;;;0.00;0.00;;;16.70;82.40;;;;;;4156871;28;20056;-61
2022/09/26 01:30:09;;;;;;;0.10;0.10;;;16.70;82.40;;;;;;4158060;28;20529;-61
2022/09/26 01:33:34;;;;;;;0.00;0.00;;;16.70;82.40;;;;;;4155564;28;20103;-61
2022/09/26 01:36:54;;;;;;;0.47;0.47;;;16.70;82.40;;;;;;4132163;28;20064;-62
2022/09/26 01:39:45;;;;;;;0.00;0.00;;;16.70;82.40;;;;;;4138393;28;20131;-60
2022/09/26 01:42:32;;;;;;;0.00;0.00;;;16.70;82.40;;;;;;4156434;28;20126;-61
2022/09/26 01:45:18;;;;;;;0.00;0.00;;;16.70;82.40;;;;;;4158176;28;20051;-61
2022/09/26 01:48:05;;;;;;;0.00;0.00;;;16.70;82.40;;;;;;4157873;28;20481;-61
2022/09/26 01:50:51;;;;;;;0.00;0.00;;;16.70;82.50;;;;;;4159826;28;20064;-62
2022/09/26 01:53:40;;;;;;;0.00;0.00;;;16.70;82.60;;;;;;4145126;28;20061;-62
2022/09/26 01:56:24;;;;;;;0.00;0.00;;;16.70;82.60;;;;;;4143881;28;20041;-61
2022/09/26 01:59:09;;;;;;;0.00;0.00;;;16.70;83.40;;;;;;4143692;28;20203;-62
2022/09/26 02:01:55;;;;;;;0.20;0.20;;;16.70;82.70;;;;;;4136600;28;20132;-62
2022/09/26 02:04:41;;;;;;;0.00;0.00;;;16.70;82.60;;;;;;4159602;28;20409;-62
2022/09/26 02:07:30;;;;;;;0.00;0.00;;;16.60;82.30;;;;;;4159477;28;20379;-63
2022/09/26 02:10:17;;;;;;;0.00;0.00;;;16.60;82.30;;;;;;4147993;28;20621;-62
2022/09/26 02:13:02;;;;;;;0.00;0.00;;;16.60;82.30;;;;;;4159221;28;20130;-61
2022/09/26 02:15:47;;;;;;;0.00;0.00;;;16.60;82.30;;;;;;4161297;28;20184;-62
2022/09/26 02:18:34;;;;;;;0.00;0.00;;;16.60;82.50;;;;;;4159548;28;20514;-62
2022/09/26 02:21:22;;;;;;;0.00;0.00;;;16.60;82.40;;;;;;4159108;28;20513;-62
2022/09/26 02:24:03;;;;;;;0.00;0.00;;;16.60;82.40;;;;;;4160376;28;20057;-63
2022/09/26 02:26:44;;;;;;;0.00;0.00;;;16.60;82.50;;;;;;4159380;28;20067;-62
2022/09/26 02:29:25;;;;;;;0.00;0.00;;;16.60;82.50;;;;;;4161129;28;20049;-63
2022/09/26 02:32:14;;;;;;;0.00;0.00;;;16.60;82.80;;;;;;4143260;28;20052;-61
2022/09/26 02:34:57;;;;;;;0.00;0.00;;;16.60;82.50;;;;;;4143672;28;20121;-61
2022/09/26 02:37:38;;;;;;;0.00;0.00;;;16.60;82.60;;;;;;4142956;28;20441;-61
2022/09/26 02:40:23;;;;;;;0.00;0.00;;;16.60;82.60;;;;;;4155812;28;20161;-61
2022/09/26 02:43:23;;;;;;;0.00;0.00;;;16.60;82.60;;;;;;4158014;28;20055;-61
2022/09/26 02:46:25;;;;;;;0.00;0.00;;;16.60;82.50;;;;;;4159639;28;20049;-61
2022/09/26 02:49:19;;;;;;;0.00;0.00;;;16.60;82.70;;;;;;4159367;28;20528;-61
2022/09/26 02:52:16;;;;;;;0.00;0.00;;;16.60;82.70;;;;;;4143299;28;20040;-62
2022/09/26 02:55:08;;;;;;;0.00;0.00;;;16.60;82.70;;;;;;4143573;28;20053;-62
2022/09/26 02:58:02;;;;;;;0.00;0.00;;;16.60;82.70;;;;;;4156772;28;20060;-61
2022/09/26 03:00:53;;;;;;;0.00;0.00;;;16.60;82.70;;;;;;4154073;28;20048;-61
2022/09/26 03:03:39;;;;;;;0.00;0.00;;;16.60;82.80;;;;;;4144089;28;20064;-61
2022/09/26 03:06:26;;;;;;;0.00;0.00;;;16.60;82.80;;;;;;4139013;28;20127;-61
2022/09/26 03:09:11;;;;;;;0.00;0.00;;;16.60;82.90;;;;;;4158134;28;20126;-61
2022/09/26 03:11:54;;;;;;;0.00;0.00;;;16.60;83.00;;;;;;4159224;28;20524;-60
2022/09/26 03:14:38;;;;;;;0.00;0.00;;;16.60;83.10;;;;;;4158596;28;20063;-61
2022/09/26 03:17:20;;;;;;;0.20;0.20;;;16.60;83.10;;;;;;4158253;28;20048;-61
2022/09/26 03:20:05;;;;;;;0.00;0.00;;;16.60;83.10;;;;;;4142315;28;20065;-62
2022/09/26 03:22:50;;;;;;;0.00;0.00;;;16.60;83.20;;;;;;4142122;28;20069;-62
2022/09/26 03:25:32;;;;;;;;;;;16.50;83.20;;;;;;4158052;28;20052;-61
2022/09/26 03:28:18;;;;;;;0.17;0.17;;;16.50;83.20;;;;;;4158709;28;19928;-61
2022/09/26 03:30:59;;;;;;;0.00;0.00;;;16.50;83.30;;;;;;4158415;28;20548;-62
2022/09/26 03:33:42;;;;;;;0.20;0.20;;;16.50;83.80;;;;;;4158513;28;20049;-61
2022/09/26 03:36:23;;;;;;;0.00;0.00;;;16.50;83.40;;;;;;4158179;28;20649;-61
2022/09/26 03:39:04;;;;;;;;;;;16.50;83.50;;;;;;4158683;28;20127;-62
2022/09/26 03:41:55;;;;;;;0.00;0.00;;;16.50;83.50;;;;;;4158622;28;20397;-61
2022/09/26 03:44:39;;;;;;;0.00;0.00;;;16.50;83.60;;;;;;4158417;28;20509;-61
2022/09/26 03:47:22;;;;;;;0.00;0.00;;;16.50;83.70;;;;;;4149426;28;20138;-61
2022/09/26 03:50:07;;;;;;;0.85;0.85;;;16.50;83.90;;;;;;4146676;28;20056;-62
2022/09/26 03:52:48;;;;;;;0.00;0.00;;;16.40;83.90;;;;;;4158544;28;20063;-61
2022/09/26 03:55:29;;;;;;;0.10;0.10;;;16.50;84.00;;;;;;4145845;28;20091;-61
2022/09/26 03:58:12;;;;;;;0.00;0.00;;;16.50;84.00;;;;;;4169786;28;20061;-61
2022/09/26 04:00:53;;;;;;;0.03;0.03;;;16.50;84.00;;;;;;4158538;28;20047;-61
2022/09/26 04:03:34;;;;;;;0.85;0.77;;;16.50;84.00;;;;;;4159779;28;20048;-61
2022/09/26 04:06:18;;;;;;;;;;;16.50;84.10;;;;;;4152925;28;20163;-61
2022/09/26 04:08:59;;;;;;;0.00;0.00;;;16.40;84.00;;;;;;4157735;28;20296;-61
2022/09/26 04:11:42;;;;;;;0.00;0.00;;;16.40;84.10;;;;;;4158252;28;20143;-62
2022/09/26 04:14:24;;;;;;;0.00;0.00;;;16.40;84.10;;;;;;4159584;28;20537;-62
2022/09/26 04:17:09;;;;;;;0.20;0.20;;;16.40;84.20;;;;;;4144432;28;20068;-61
2022/09/26 04:19:54;;;;;;;0.00;0.00;;;16.40;84.20;;;;;;4168645;28;20143;-62
2022/09/26 04:22:36;;;;;;;0.00;0.00;;;16.40;84.30;;;;;;4157819;28;20480;-62
2022/09/26 04:25:17;;;;;;;0.00;0.00;;;16.40;84.40;;;;;;4158639;28;20053;-62
2022/09/26 04:27:58;;;;;;;0.00;0.00;;;16.40;84.40;;;;;;4158217;28;20060;-62
2022/09/26 04:30:41;;;;;;;0.00;0.00;;;16.40;84.40;;;;;;4157961;28;20126;-62
2022/09/26 04:33:23;;;;;;;0.00;0.00;;;16.40;84.30;;;;;;4157586;28;20445;-62
2022/09/26 04:36:18;;;;;;;0.00;0.00;;;16.40;84.40;;;;;;4167221;28;20044;-62
2022/09/26 04:38:59;;;;;;;0.00;0.00;;;16.40;84.40;;;;;;4159188;28;20849;-63
2022/09/26 04:41:40;;;;;;;0.00;0.00;;;16.40;84.50;;;;;;4158402;28;20048;-63
2022/09/26 04:44:21;;;;;;;0.00;0.00;;;16.40;84.50;;;;;;4152787;28;20108;-62
2022/09/26 04:47:03;;;;;;;0.00;0.00;;;16.40;84.50;;;;;;4142303;28;20152;-64
2022/09/26 04:50:08;;;;;;;0.00;0.00;;;16.40;84.40;;;;;;4152011;28;20080;-63
2022/09/26 04:52:48;;;;;;;0.00;0.00;;;16.40;84.30;;;;;;4157170;28;20520;-61
2022/09/26 04:55:30;;;;;;;0.00;0.00;;;16.40;85.20;;;;;;4158711;28;20056;-61
2022/09/26 04:58:11;;;;;;;0.00;0.00;;;16.40;84.20;;;;;;4157243;28;20060;-61
2022/09/26 05:00:51;;;;;;;0.00;0.00;;;16.40;84.30;;;;;;4157325;28;20611;-62
2022/09/26 05:03:50;;;;;;;0.00;0.00;;;16.40;84.30;;;;;;4144983;28;20671;-61
2022/09/26 05:06:31;;;;;;;0.00;0.00;;;16.40;84.40;;;;;;4141109;28;20099;-61
2022/09/26 05:09:14;;;;;;;0.00;0.00;;;16.40;84.40;;;;;;4140680;28;20139;-60
2022/09/26 05:12:04;;;;;;;0.00;0.00;;;16.40;84.50;;;;;;4146074;28;20574;-61
2022/09/26 05:14:45;;;;;;;0.10;0.10;;;16.40;84.50;;;;;;4157152;28;20489;-61
2022/09/26 05:17:26;;;;;;;0.30;0.30;;;16.40;84.40;;;;;;4156873;28;20060;-61
2022/09/26 05:20:13;;;;;;;0.65;0.65;;;16.40;84.20;;;;;;4140554;28;20292;-61
2022/09/26 05:23:07;;;;;;;0.03;0.03;;;16.40;84.30;;;;;;4155727;28;20108;-63
2022/09/26 05:28:49;;;;;;;0.00;0.00;;;16.30;84.30;;;;;;4156851;28;20156;-62
2022/09/26 05:31:36;;;;;;;0.00;0.00;;;16.30;84.30;;;;;;4156815;28;20497;-62
2022/09/26 05:34:17;;;;;;;0.00;0.00;;;16.30;84.30;;;;;;4157048;28;20045;-62
2022/09/26 05:37:01;;;;;;;0.10;0.10;;;16.30;84.30;;;;;;4140256;28;20053;-63
2022/09/26 05:42:43;;;;;;;0.35;0.35;;;16.30;84.60;;;;;;4156976;28;20098;-61
2022/09/26 05:45:23;;;;;;;0.00;0.00;;;16.30;84.60;;;;;;4157018;28;20088;-61
2022/09/26 05:48:05;;;;;;;0.00;0.00;;;16.30;84.60;;;;;;4156955;28;20056;-61
2022/09/26 05:50:48;;;;;;;0.00;0.00;;;16.40;85.20;;;;;;4144878;28;20060;-61
2022/09/26 05:53:30;;;;;;;0.30;0.30;;;16.40;85.40;;;;;;4157222;28;20076;-61
2022/09/26 05:56:13;;;;;;;0.00;0.00;;;16.40;84.90;;;;;;4156739;28;20087;-61
2022/09/26 05:59:37;;;;;;;0.00;0.00;;;16.40;84.80;;;;;;4148085;28;20138;-61
2022/09/26 06:02:55;;;;;;;0.00;0.00;;;16.40;85.60;;;;;;4134521;28;20157;-63
2022/09/26 06:05:48;;;;;;;0.00;0.00;;;16.40;84.70;;;;;;4134935;28;20595;-64
2022/09/26 06:08:37;;;;;;;0.00;0.00;;;16.40;84.80;;;;;;4154995;28;20526;-62
2022/09/26 06:11:47;;;;;;;0.00;0.00;;;16.30;84.70;;;;;;4141796;28;20058;-64
2022/09/26 06:14:30;;;;;;;0.00;0.00;;;16.30;84.70;;;;;;4146960;28;20075;-63
2022/09/26 06:17:12;;;;;;;0.00;0.00;;;16.30;84.70;;;;;;4157078;28;20752;-63
2022/09/26 06:19:52;;;;;;;0.30;0.30;;;16.30;85.60;;;;;;4156163;28;20048;-64
2022/09/26 06:22:39;;;;;;;0.00;0.00;;;16.30;84.80;;;;;;4156828;28;20099;-64
2022/09/26 06:25:22;;;;;;;0.00;0.00;;;16.30;84.60;;;;;;4155976;28;20188;-63
2022/09/26 06:28:03;;;;;;;0.10;0.10;;;16.30;84.70;;;;;;4156162;28;20142;-65
2022/09/26 06:30:44;;;;;;;0.20;0.20;;;16.20;84.60;;;;;;4152995;28;20766;-64
2022/09/26 06:33:39;;;;;;;0.00;0.00;;;16.20;84.70;;;;;;4155636;28;20052;-64
2022/09/26 06:36:31;;;;;;;0.00;0.00;;;16.20;84.60;;;;;;4158812;28;20064;-64
2022/09/26 06:39:11;;;;;;;0.00;0.00;;;16.20;84.70;;;;;;4159180;28;20044;-62
2022/09/26 06:41:54;;;;;;;0.00;0.00;;;16.20;84.80;;;;;;4139895;28;20064;-65
2022/09/26 06:44:41;;;;;;;0.00;0.00;;;16.20;84.80;;;;;;4144889;28;20789;-65
2022/09/26 06:47:38;;;;;;;0.20;0.20;;;16.20;84.70;;;;;;4144587;28;20198;-61
2022/09/26 06:50:38;;;;;;;0.00;0.00;;;16.20;84.70;;;;;;4139963;28;20056;-62
2022/09/26 06:53:20;;;;;;;0.00;0.00;;;16.20;84.60;;;;;;4144462;28;20055;-62
2022/09/26 06:56:02;;;;;;;0.00;0.00;;;16.20;84.70;;;;;;4139689;28;20137;-62
2022/09/26 06:58:48;;;;;;;0.10;0.10;;;16.10;84.70;;;;;;4149161;28;20065;-61
2022/09/26 07:01:30;;;;;;;0.00;0.00;;;16.10;84.50;;;;;;4147434;28;20155;-62
2022/09/26 07:04:29;;;;;;;0.00;0.00;;;16.10;84.50;;;;;;4142317;28;20979;-62
2022/09/26 07:07:29;;;;;;;0.00;0.00;;;16.10;84.50;;;;;;4151694;28;20111;-64
2022/09/26 07:10:10;;;;;;;0.00;0.00;;;16.10;84.30;;;;;;4147479;28;20065;-65
2022/09/26 07:13:01;;;;;;;0.00;0.00;;;16.10;84.40;;;;;;4143971;28;20192;-64
2022/09/26 07:15:44;;;;;;;0.00;0.00;;;16.10;84.40;;;;;;4149199;28;20052;-64
2022/09/26 07:18:52;;;;;;;0.10;0.10;;;16.10;84.40;;;;;;4138393;28;20085;-65
2022/09/26 07:21:47;;;;;;;0.55;0.55;;;16.10;84.30;;;;;;4155200;28;20056;-62
2022/09/26 07:24:41;;;;;;;0.30;0.30;;;16.10;84.30;;;;;;4140584;28;20056;-64
2022/09/26 07:27:22;;;;;;;0.00;0.00;;;16.10;84.20;;;;;;4156576;28;20675;-67
2022/09/26 07:30:05;;;;;;;0.00;0.00;;;16.10;84.20;;;;;;4150148;28;20098;-66
2022/09/26 07:32:51;;;;;;;0.00;0.00;;;16.10;84.20;;;;;;4136794;28;20088;-64
2022/09/26 07:35:48;;;;;;;0.00;0.00;;;16.10;84.20;;;;;;4130259;28;20123;-65
2022/09/26 07:38:29;;;;;;;0.08;0.08;;;16.10;84.20;;;;;;4155150;28;20060;-62
2022/09/26 07:41:10;;;;;;;0.00;0.00;;;16.10;84.20;;;;;;4155543;28;20060;-64
2022/09/26 07:43:52;;;;;;;0.00;0.00;;;16.10;84.40;;;;;;4149728;28;20556;-64
2022/09/26 07:50:13;;;;;;;1.17;1.00;;;16.10;84.40;;;;;;4139206;28;20116;-64
2022/09/26 07:53:17;;;;;;;0.00;0.00;;;16.10;84.30;;;;;;4157977;28;20099;-64
2022/09/26 07:56:21;;;;;;;0.00;0.00;;;16.10;84.10;;;;;;4151608;28;20557;-65
2022/09/26 07:59:22;;;;;;;0.10;0.10;;;16.10;84.00;;;;;;4141295;28;20539;-66
2022/09/26 08:02:44;;;;;;;0.00;0.00;;;16.10;83.80;;;;;;4156571;28;20048;-67
2022/09/26 08:05:28;;;;;;;0.38;0.38;;;16.10;83.90;;;;;;4150137;28;20057;-66
2022/09/26 08:08:09;;;;;;;0.00;0.00;;;16.10;84.10;;;;;;4154553;28;20048;-67
2022/09/26 08:11:15;;;;;;;0.47;0.47;;;16.10;84.10;;;;;;4155799;28;20099;-68
2022/09/26 08:14:06;;;;;;;0.00;0.00;;;16.10;84.00;;;;;;4142153;28;20068;-61
2022/09/26 08:17:08;;;;;;;0.00;0.00;;;16.10;84.70;;;;;;4145410;28;20517;-62
2022/09/26 08:19:53;;;;;;;1.42;1.27;;;16.10;83.90;;;;;;4153071;28;20048;-62
2022/09/26 08:22:36;;;;;;;0.00;0.00;;;16.10;83.90;;;;;;4162145;28;20232;-61
2022/09/26 08:25:18;;;;;;;0.00;0.00;;;16.10;83.80;;;;;;4139939;28;20103;-66
2022/09/26 08:28:11;;;;;;;2.08;1.98;;;16.10;84.10;;;;;;4140949;28;21422;-66
2022/09/26 08:30:54;;;;;;;2.17;1.98;;;16.10;84.20;;;;;;4146665;28;20463;-65
2022/09/26 08:33:37;;;;;;;0.00;0.00;;;16.10;85.40;;;;;;4148274;28;20123;-61
2022/09/26 08:36:18;;;;;;;0.00;0.00;;;16.10;84.70;;;;;;4155652;28;20315;-62
2022/09/26 08:39:19;;;;;;;0.10;0.10;;;16.10;84.50;;;;;;4139884;28;20525;-60
2022/09/26 08:42:34;;;;;;;0.00;0.00;;;16.10;84.40;;;;;;4155338;28;20060;-61
2022/09/26 08:49:15;;;;;;;0.00;0.00;;;16.00;84.00;;;;;;4150476;28;20470;-62
2022/09/26 08:51:59;;;;;;;0.00;0.00;;;16.10;84.10;;;;;;4153023;28;20410;-65
2022/09/26 08:54:44;;;;;;;0.00;0.00;;;16.10;84.60;;;;;;4153857;28;20060;-65
2022/09/26 08:57:34;;;;;;;0.22;0.22;;;16.00;84.30;;;;;;4144867;28;20064;-66
2022/09/26 09:00:21;;;;;;;0.45;0.22;;;16.10;84.00;;;;;;4153037;28;20195;-67
2022/09/26 09:03:21;;;;;;;0.00;0.00;;;16.10;83.90;;;;;;4139357;28;20536;-66
2022/09/26 09:06:06;;;;;;;0.00;0.00;;;16.10;83.70;;;;;;4139739;28;20532;-66
2022/09/26 09:08:49;;;;;;;0.00;0.00;;;16.00;83.60;;;;;;4127837;28;20053;-66
2022/09/26 09:11:57;;;;;;;0.00;0.00;;;16.10;83.70;;;;;;4127326;28;20057;-66
2022/09/26 09:14:51;;;;;;;0.00;0.00;;;16.10;83.70;;;;;;4141083;28;20135;-66
2022/09/26 09:18:20;;;;;;;0.00;0.00;;;16.00;83.60;;;;;;4142328;28;20407;-65
2022/09/26 09:21:38;;;;;;;0.00;0.00;;;16.00;83.50;;;;;;4140106;28;20060;-65
2022/09/26 09:24:51;;;;;;;0.00;0.00;;;16.00;83.50;;;;;;4139295;28;20410;-65
2022/09/26 09:27:44;;;;;;;0.00;0.00;;;16.00;83.50;;;;;;4144190;28;20521;-61
2022/09/26 09:30:40;;;;;;;0.00;0.00;;;16.00;83.50;;;;;;4142265;28;20061;-65
2022/09/26 09:33:46;;;;;;;0.00;0.00;;;16.00;83.50;;;;;;4146054;28;20188;-64
2022/09/26 09:36:40;;;;;;;0.00;0.00;;;16.00;83.70;;;;;;4147927;28;20061;-64
2022/09/26 09:39:51;;;;;;;0.00;0.00;;;16.00;83.70;;;;;;4132121;28;20073;-64
2022/09/26 09:42:50;;;;;;;0.17;0.17;;;16.00;83.80;;;;;;4150333;28;20060;-64
2022/09/26 09:45:38;;;;;;;0.00;0.00;;;16.00;83.80;;;;;;4139130;28;20184;-64
2022/09/26 09:48:19;;;;;;;0.00;0.00;;;16.00;83.90;;;;;;4139943;28;20053;-64
2022/09/26 09:51:17;;;;;;;0.00;0.00;;;16.00;84.00;;;;;;4139636;28;20084;-64
2022/09/26 09:54:30;;;;;;;0.00;0.00;;;16.00;83.90;;;;;;4141772;28;20491;-64
2022/09/26 09:57:32;;;;;;;;;;;16.00;84.00;;;;;;4147089;28;20131;-64
2022/09/26 10:00:16;;;;;;;;;;;16.00;84.00;;;;;;4140097;28;19933;-64
2022/09/26 10:03:23;;;;;;;0.10;0.10;;;16.00;84.00;;;;;;4145514;28;19971;-64
2022/09/26 10:06:08;;;;;;;0.00;0.00;;;16.00;84.00;;;;;;4144419;28;20154;-66
2022/09/26 10:09:18;;;;;;;0.00;0.00;;;16.00;84.10;;;;;;4152685;28;20056;-65
2022/09/26 10:12:50;;;;;;;0.00;0.00;;;16.00;85.00;;;;;;4142737;28;20065;-64
2022/09/26 10:15:58;;;;;;;0.00;0.00;;;16.00;84.10;;;;;;4154431;28;20589;-64
2022/09/26 10:19:05;;;;;;;0.00;0.00;;;16.00;84.10;;;;;;4145378;28;20133;-59
2022/09/26 10:21:51;;;;;;;0.00;0.00;;;16.00;84.10;;;;;;4147705;28;20061;-64
2022/09/26 10:24:39;;;;;;;0.00;0.00;;;16.00;84.30;;;;;;4143019;28;20355;-64
2022/09/26 10:27:34;;;;;;;0.00;0.00;;;16.00;84.40;;;;;;4142702;28;20060;-60
2022/09/26 10:30:25;;;;;;;0.00;0.00;;;16.00;84.40;;;;;;4142067;28;20080;-61
2022/09/26 10:33:24;;;;;;;0.10;0.10;;;16.00;84.40;;;;;;4157113;28;20064;-65
2022/09/26 10:36:20;;;;;;;0.00;0.00;;;16.00;84.40;;;;;;4152351;28;20130;-60
2022/09/26 10:42:20;;;;;;;0.00;0.00;;;16.00;85.40;;;;;;4155086;28;20123;-60
2022/09/26 10:45:14;;;;;;;0.88;0.80;;;16.00;84.40;;;;;;4142908;28;20064;-61
2022/09/26 10:48:20;;;;;;;0.00;0.00;;;16.00;84.50;;;;;;4144662;28;20056;-61
2022/09/26 10:51:25;;;;;;;0.30;0.30;;;16.00;84.60;;;;;;4143794;28;20053;-60
2022/09/26 10:54:15;;;;;;;0.00;0.00;;;16.00;84.80;;;;;;4156302;28;20048;-61
2022/09/26 10:57:01;;;;;;;0.00;0.00;;;16.00;84.70;;;;;;4153463;28;20053;-60
2022/09/26 10:59:46;;;;;;;0.00;0.00;;;16.00;84.70;;;;;;4143638;28;20183;-60
2022/09/26 11:02:28;;;;;;;0.00;0.00;;;16.00;84.70;;;;;;4152995;28;20617;-60
2022/09/26 11:08:21;;;;;;;0.47;0.47;;;16.00;84.80;;;;;;4143293;28;20422;-61
2022/09/26 11:11:32;;;;;;;0.00;0.00;;;16.00;84.70;;;;;;4145910;28;20505;-65
2022/09/26 11:14:23;;;;;;;0.00;0.00;;;16.00;85.90;;;;;;4144681;28;20525;-65
2022/09/26 11:17:15;;;;;;;0.00;0.00;;;16.00;86.40;;;;;;4144810;28;20056;-65
2022/09/26 11:20:01;;;;;;;0.00;0.00;;;16.00;86.50;;;;;;4147713;28;20052;-66
2022/09/26 11:22:53;;;;;;;0.00;0.00;;;16.00;87.80;;;;;;4155129;28;20057;-61
2022/09/26 11:25:46;;;;;;;0.00;0.00;;;16.10;86.80;;;;;;4142162;28;20493;-61
2022/09/26 11:28:31;;;;;;;0.00;0.00;;;16.10;86.90;;;;;;4157303;28;20585;-61
2022/09/26 11:31:42;;;;;;;0.00;0.00;;;16.10;87.20;;;;;;4147326;28;20064;-60
2022/09/26 11:34:35;;;;;;;1.65;1.45;;;16.10;87.20;;;;;;4143694;28;20533;-61
2022/09/26 11:37:32;;;;;;;0.00;0.00;;;16.10;86.90;;;;;;4140464;28;20132;-62
2022/09/26 11:40:31;;;;;;;0.00;0.00;;;16.10;87.10;;;;;;4142047;28;20184;-66
2022/09/26 11:43:25;;;;;;;0.00;0.00;;;16.10;86.80;;;;;;4155014;28;20064;-66
2022/09/26 11:46:33;;;;;;;0.00;0.00;;;16.10;86.60;;;;;;4144966;28;20048;-65
2022/09/26 11:49:47;;;;;;;0.00;0.00;;;16.10;88.10;;;;;;4141255;28;20061;-65
2022/09/26 11:52:52;;;;;;;0.00;0.00;;;16.10;87.40;;;;;;4138566;28;20077;-61
2022/09/26 11:55:55;;;;;;;0.00;0.00;;;16.10;87.30;;;;;;4156021;28;20084;-61
2022/09/26 11:58:44;;;;;;;0.00;0.00;;;16.10;87.10;;;;;;4143685;28;20056;-61
2022/09/26 12:01:40;;;;;;;0.00;0.00;;;16.10;86.90;;;;;;4147198;28;20112;-61
2022/09/26 12:04:44;;;;;;;0.00;0.00;;;16.10;86.70;;;;;;4146812;28;20126;-61
2022/09/26 12:07:36;;;;;;;6.18;1.85;;;16.10;86.70;;;;;;4140719;28;20064;-61
2022/09/26 12:10:32;;;;;;;0.00;0.00;;;16.10;86.70;;;;;;4154303;28;20147;-61
2022/09/26 12:13:28;;;;;;;3.05;2.85;;;16.10;86.70;;;;;;4140501;28;20060;-61
2022/09/26 12:16:14;;;;;;;0.30;0.30;;;16.10;86.70;;;;;;4142534;28;20085;-63
2022/09/26 12:19:04;;;;;;;0.00;0.00;;;16.10;86.70;;;;;;4150183;28;20095;-65
2022/09/26 12:25:23;;;;;;;0.00;0.00;;;16.00;86.80;;;;;;4141495;28;20411;-65
2022/09/26 12:28:19;;;;;;;9.02;3.92;;;16.10;86.80;;;;;;4151199;28;20056;-61
2022/09/26 12:31:12;;;;;;;0.10;0.10;;;16.00;86.90;;;;;;4152142;28;20060;-61
2022/09/26 12:34:17;;;;;;;0.75;0.75;;;16.00;86.80;;;;;;4146818;28;20048;-65
2022/09/26 12:37:13;;;;;;;0.90;0.90;;;16.00;86.80;;;;;;4149004;28;20052;-66
2022/09/26 12:40:08;;;;;;;28.95;3.53;;;16.00;86.90;;;;;;4143705;28;20056;-66
2022/09/26 12:43:18;;;;;;;0.00;0.00;;;16.00;87.80;;;;;;4141326;28;20538;-65
2022/09/26 12:46:26;;;;;;;0.00;0.00;;;16.00;86.90;;;;;;4140478;28;20044;-67
2022/09/26 12:49:23;;;;;;;0.00;0.00;;;16.00;87.00;;;;;;4145765;28;20052;-66
2022/09/26 12:52:15;;;;;;;0.00;0.00;;;16.00;87.00;;;;;;4139261;28;20061;-65
2022/09/26 12:55:14;;;;;;;0.10;0.10;;;16.00;87.20;;;;;;4140323;28;20156;-61
2022/09/26 12:58:06;;;;;;;1.20;1.20;;;16.00;87.10;;;;;;4144376;28;20061;-67
2022/09/26 13:00:56;;;;;;;0.00;0.00;;;16.00;87.20;;;;;;4147455;28;20486;-64
2022/09/26 13:04:13;;;;;;;0.30;0.30;;;16.00;87.10;;;;;;4154128;28;20514;-60
2022/09/26 13:07:11;;;;;;;12.73;2.13;;;16.00;87.30;;;;;;4140863;28;20196;-60
2022/09/26 13:10:20;;;;;;;0.32;0.32;;;16.00;87.40;;;;;;4154572;28;20466;-65
2022/09/26 13:13:33;;;;;;;0.05;0.05;;;16.00;87.60;;;;;;4144220;28;20060;-65
2022/09/26 13:16:30;;;;;;;0.00;0.00;;;16.10;87.90;;;;;;4143840;28;20049;-66
2022/09/26 13:19:21;;;;;;;0.00;0.00;;;16.10;89.10;;;;;;4144558;28;20073;-65
2022/09/26 13:22:06;;;;;;;0.00;0.00;;;16.10;89.30;;;;;;4149413;28;20057;-64
2022/09/26 13:24:52;;;;;;;0.00;0.00;;;16.10;89.50;;;;;;4144161;28;20057;-60
2022/09/26 13:27:39;;;;;;;0.00;0.00;;;16.10;89.10;;;;;;4145749;28;20064;-59
2022/09/26 13:30:25;;;;;;;1.95;1.85;;;16.10;88.60;;;;;;4144327;28;20335;-59
2022/09/26 13:33:15;;;;;;;0.00;0.00;;;16.10;88.40;;;;;;4141630;28;20688;-64
2022/09/26 13:36:00;;;;;;;0.00;0.00;;;16.10;88.40;;;;;;4140841;28;20045;-64
2022/09/26 13:38:47;;;;;;;3.13;1.38;;;16.10;88.30;;;;;;4147891;28;20131;-65
2022/09/26 13:41:40;;;;;;;8.77;2.53;;;16.10;88.40;;;;;;4143744;28;20351;-60
2022/09/26 13:44:42;;;;;;;0.00;0.00;;;16.10;88.30;;;;;;4153151;28;20052;-66
2022/09/26 13:47:29;;;;;;;0.00;0.00;;;16.10;88.30;;;;;;4147215;28;20061;-65
2022/09/26 13:50:23;;;;;;;0.35;0.35;;;16.10;88.30;;;;;;4143456;28;20206;-65
2022/09/26 13:53:15;;;;;;;0.00;0.00;;;16.10;88.50;;;;;;4148444;28;20056;-65
2022/09/26 13:56:29;;;;;;;0.00;0.00;;;16.10;88.40;;;;;;4152704;28;20064;-65
2022/09/26 13:59:44;;;;;;;0.65;0.65;;;16.10;88.40;;;;;;4146846;28;20052;-65
2022/09/26 14:02:28;;;;;;;30.60;2.63;;;16.10;88.40;;;;;;4148944;28;20064;-60
2022/09/26 14:05:27;;;;;;;1.35;1.25;;;16.10;88.40;;;;;;4161044;28;20057;-60
2022/09/26 14:11:45;;;;;;;0.00;0.00;;;16.10;88.50;;;;;;4158530;28;20142;-61
2022/09/26 14:14:42;;;;;;;0.00;0.00;;;16.10;88.50;;;;;;4160638;28;20485;-61
2022/09/26 14:18:03;;;;;;;0.00;0.00;;;16.10;88.60;;;;;;4160472;28;20397;-60
2022/09/26 14:20:58;;;;;;;0.00;0.00;;;16.10;88.70;;;;;;4126244;28;20100;-61
2022/09/26 14:23:43;;;;;;;0.00;0.00;;;16.10;89.50;;;;;;4160630;28;20154;-61
2022/09/26 14:26:28;;;;;;;0.30;0.30;;;16.10;88.40;;;;;;4160858;28;20568;-62
2022/09/26 14:29:34;;;;;;;0.00;0.00;;;16.10;88.50;;;;;;4160518;28;20052;-61
2022/09/26 14:32:17;;;;;;;0.00;0.00;;;16.10;88.60;;;;;;4160589;28;20053;-63
2022/09/26 14:35:01;;;;;;;0.08;0.08;;;16.10;88.60;;;;;;4160106;28;20195;-61
2022/09/26 14:37:44;;;;;;;10.30;1.75;;;16.10;88.60;;;;;;4159449;28;20049;-61
2022/09/26 14:40:32;;;;;;;1.80;1.33;;;16.10;88.70;;;;;;4145104;28;20081;-61
2022/09/26 14:43:14;;;;;;;0.70;0.70;;;16.10;89.00;;;;;;4144717;28;20052;-61
2022/09/26 14:46:02;;;;;;;8.48;1.00;;;16.10;88.90;;;;;;4159629;28;20044;-61
2022/09/26 14:48:44;;;;;;;1.63;1.55;;;16.10;88.90;;;;;;4160130;28;20053;-61
2022/09/26 14:51:28;;;;;;;4.18;1.17;;;16.10;88.90;;;;;;4144355;28;20135;-64
2022/09/26 14:54:22;;;;;;;0.90;0.90;;;16.10;89.00;;;;;;4144424;28;20049;-64
2022/09/26 14:57:07;;;;;;;0.45;0.45;;;16.10;89.50;;;;;;4144116;28;20402;-64
2022/09/26 14:59:49;;;;;;;0.00;0.00;;;16.20;89.60;;;;;;4148757;28;20052;-64
2022/09/26 15:02:38;;;;;;;;;;;16.10;89.60;;;;;;4160980;28;20056;-63
2022/09/26 15:05:23;;;;;;;0.10;0.10;;;16.20;89.70;;;;;;4155465;28;19932;-63
2022/09/26 15:08:04;;;;;;;0.75;0.75;;;16.20;89.80;;;;;;4144624;28;20052;-64
2022/09/26 15:10:47;;;;;;;0.13;0.13;;;16.20;89.80;;;;;;4160415;28;20505;-61
2022/09/26 15:13:39;;;;;;;0.45;0.45;;;16.20;90.20;;;;;;4159522;28;20136;-61
2022/09/26 15:16:22;;;;;;;;;;;16.20;90.90;;;;;;4160695;28;20152;-63